createdAt,value
2022-10-02T00:00:00.801Z,12.30
2022-10-02T00:02:30.159Z,12.20
2022-10-02T00:05:02.710Z,12.20
2022-10-02T00:07:33.140Z,12.30
2022-10-02T00:10:06.597Z,12.20
2022-10-02T00:12:34.521Z,12.20
2022-10-02T00:15:06.401Z,12.30
2022-10-02T00:17:36.034Z,12.30
2022-10-02T00:20:06.673Z,12.20
2022-10-02T00:22:59.419Z,12.30
2022-10-02T00:25:28.746Z,12.30
2022-10-02T00:28:14.441Z,12.30
2022-10-02T00:31:05.902Z,12.40
2022-10-02T00:33:41.876Z,12.40
2022-10-02T00:36:20.571Z,12.50
2022-10-02T00:39:11.111Z,12.50
2022-10-02T00:41:49.727Z,12.50
2022-10-02T00:44:16.370Z,12.40
2022-10-02T00:46:56.312Z,12.50
2022-10-02T00:49:37.032Z,12.50
2022-10-02T00:52:16.164Z,12.60
2022-10-02T00:54:46.114Z,12.60
2022-10-02T00:57:24.631Z,12.70
2022-10-02T01:00:10.244Z,12.60
2022-10-02T01:02:43.520Z,12.70
2022-10-02T01:05:10.986Z,12.70
2022-10-02T01:07:42.108Z,12.80
2022-10-02T01:10:09.272Z,12.80
2022-10-02T01:12:36.085Z,12.80
2022-10-02T01:15:10.243Z,12.80
2022-10-02T01:17:37.024Z,12.90
2022-10-02T01:20:05.845Z,12.80
2022-10-02T01:22:43.001Z,12.80
2022-10-02T01:25:09.660Z,12.80
2022-10-02T01:27:39.229Z,12.80
2022-10-02T01:30:11.521Z,12.80
2022-10-02T01:32:41.123Z,12.80
2022-10-02T01:35:08.216Z,12.80
2022-10-02T01:37:36.300Z,12.80
2022-10-02T01:40:06.754Z,12.80
2022-10-02T01:42:34.144Z,12.70
2022-10-02T01:45:00.965Z,12.70
2022-10-02T01:47:44.217Z,12.80
2022-10-02T01:50:29.479Z,12.80
2022-10-02T01:52:56.092Z,12.80
2022-10-02T01:55:31.905Z,12.80
2022-10-02T01:58:07.974Z,12.80
2022-10-02T02:00:48.150Z,12.80
2022-10-02T02:03:20.845Z,12.80
2022-10-02T02:05:51.016Z,12.80
2022-10-02T02:08:26.895Z,12.80
2022-10-02T02:11:19.684Z,12.80
2022-10-02T02:13:49.232Z,12.80
2022-10-02T02:16:15.873Z,12.80
2022-10-02T02:18:57.161Z,12.80
2022-10-02T02:21:26.816Z,12.80
2022-10-02T02:23:54.818Z,12.80
2022-10-02T02:26:22.884Z,12.80
2022-10-02T02:28:52.607Z,12.80
2022-10-02T02:31:21.599Z,12.80
2022-10-02T02:33:50.631Z,12.80
2022-10-02T02:36:19.212Z,12.80
2022-10-02T02:38:50.718Z,12.80
2022-10-02T02:41:20.722Z,12.80
2022-10-02T02:43:51.231Z,12.90
2022-10-02T02:46:24.978Z,12.80
2022-10-02T02:48:55.033Z,12.80
2022-10-02T02:51:24.319Z,12.80
2022-10-02T02:53:57.767Z,12.80
2022-10-02T02:56:26.391Z,12.80
2022-10-02T02:58:55.394Z,12.70
2022-10-02T03:01:22.289Z,12.70
2022-10-02T03:03:48.914Z,12.70
2022-10-02T03:06:15.498Z,12.80
2022-10-02T03:08:42.878Z,12.80
2022-10-02T03:11:27.672Z,12.80
2022-10-02T03:14:09.757Z,12.80
2022-10-02T03:16:43.418Z,12.80
2022-10-02T03:19:18.200Z,12.80
2022-10-02T03:21:47.655Z,12.80
2022-10-02T03:24:14.225Z,12.80
2022-10-02T03:26:45.259Z,12.90
2022-10-02T03:29:34.865Z,12.90
2022-10-02T03:32:02.242Z,12.90
2022-10-02T03:34:31.471Z,12.90
2022-10-02T03:36:58.105Z,13.00
2022-10-02T03:39:26.191Z,13.00
2022-10-02T03:41:53.510Z,13.00
2022-10-02T03:44:20.207Z,12.90
2022-10-02T03:46:46.994Z,13.00
2022-10-02T03:49:13.603Z,13.00
2022-10-02T03:51:40.227Z,13.00
2022-10-02T03:54:12.994Z,13.00
2022-10-02T03:56:59.918Z,13.00
2022-10-02T03:59:45.029Z,12.90
2022-10-02T04:02:38.019Z,12.90
2022-10-02T04:05:10.850Z,12.90
2022-10-02T04:07:39.098Z,12.90
2022-10-02T04:10:14.759Z,12.80
2022-10-02T04:12:47.005Z,12.70
2022-10-02T04:15:20.595Z,12.80
2022-10-02T04:17:49.319Z,12.70
2022-10-02T04:20:23.378Z,12.70
2022-10-02T04:22:56.443Z,12.70
2022-10-02T04:25:25.086Z,12.80
2022-10-02T04:27:51.794Z,12.80
2022-10-02T04:30:19.625Z,12.80
2022-10-02T04:32:47.547Z,12.80
2022-10-02T04:35:18.607Z,12.80
2022-10-02T04:37:50.590Z,12.80
2022-10-02T04:40:23.182Z,12.80
2022-10-02T04:42:52.733Z,12.80
2022-10-02T04:45:26.636Z,12.80
2022-10-02T04:48:14.196Z,12.80
2022-10-02T04:50:59.565Z,12.80
2022-10-02T04:53:28.991Z,12.80
2022-10-02T04:55:55.560Z,12.70
2022-10-02T04:58:40.893Z,12.70
2022-10-02T05:01:30.873Z,12.70
2022-10-02T05:04:06.546Z,12.80
2022-10-02T05:06:36.423Z,12.80
2022-10-02T05:09:28.508Z,12.70
2022-10-02T05:12:13.993Z,12.70
2022-10-02T05:15:04.454Z,12.70
2022-10-02T05:17:37.639Z,12.70
2022-10-02T05:20:16.551Z,12.60
2022-10-02T05:22:55.609Z,12.80
2022-10-02T05:25:31.585Z,12.80
2022-10-02T05:28:03.136Z,12.70
2022-10-02T05:30:36.138Z,12.80
2022-10-02T05:33:08.790Z,12.90
2022-10-02T05:35:53.531Z,12.90
2022-10-02T05:38:20.129Z,12.90
2022-10-02T05:41:00.136Z,12.90
2022-10-02T05:43:53.013Z,12.90
2022-10-02T05:46:23.803Z,12.90
2022-10-02T05:49:02.621Z,12.90
2022-10-02T05:51:51.824Z,12.90
2022-10-02T05:54:28.898Z,12.90
2022-10-02T05:57:16.733Z,12.90
2022-10-02T05:59:57.116Z,12.90
2022-10-02T06:02:39.242Z,12.90
2022-10-02T06:05:17.825Z,12.90
2022-10-02T06:07:46.138Z,12.80
2022-10-02T06:10:16.833Z,12.90
2022-10-02T06:12:54.950Z,13.00
2022-10-02T06:15:33.036Z,13.00
2022-10-02T06:18:02.568Z,13.00
2022-10-02T06:20:32.600Z,13.00
2022-10-02T06:23:05.732Z,12.90
2022-10-02T06:25:35.934Z,12.90
2022-10-02T06:28:02.825Z,13.00
2022-10-02T06:30:30.428Z,13.00
2022-10-02T06:33:05.944Z,13.10
2022-10-02T06:35:35.529Z,13.10
2022-10-02T06:38:08.472Z,13.20
2022-10-02T06:40:42.715Z,13.20
2022-10-02T06:43:29.883Z,13.20
2022-10-02T06:45:58.880Z,13.20
2022-10-02T06:48:30.188Z,13.20
2022-10-02T06:51:05.880Z,13.30
2022-10-02T06:53:32.466Z,13.30
2022-10-02T06:56:02.791Z,13.40
2022-10-02T06:58:35.322Z,13.40
2022-10-02T07:01:22.197Z,13.40
2022-10-02T07:04:07.215Z,13.30
2022-10-02T07:06:34.300Z,13.20
2022-10-02T07:09:33.451Z,13.20
2022-10-02T07:12:09.117Z,13.20
2022-10-02T07:14:35.843Z,13.20
2022-10-02T07:17:14.120Z,13.30
2022-10-02T07:19:49.926Z,13.30
2022-10-02T07:22:45.402Z,13.30
2022-10-02T07:25:16.161Z,13.30
2022-10-02T07:27:42.751Z,13.30
2022-10-02T07:30:11.339Z,13.30
2022-10-02T07:32:57.180Z,13.30
2022-10-02T07:35:38.787Z,13.40
2022-10-02T07:38:05.347Z,13.30
2022-10-02T07:40:50.801Z,13.40
2022-10-02T07:43:31.350Z,13.40
2022-10-02T07:46:09.827Z,13.40
2022-10-02T07:48:42.490Z,13.40
2022-10-02T07:51:47.320Z,13.50
2022-10-02T07:54:32.482Z,13.50
2022-10-02T07:57:11.478Z,13.60
2022-10-02T07:59:39.920Z,13.60
2022-10-02T08:02:11.521Z,13.70
2022-10-02T08:04:39.474Z,13.60
2022-10-02T08:07:06.739Z,13.70
2022-10-02T08:09:42.656Z,13.70
2022-10-02T08:12:32.140Z,13.80
2022-10-02T08:14:59.399Z,13.70
2022-10-02T08:17:30.127Z,13.80
2022-10-02T08:20:03.060Z,13.90
2022-10-02T08:22:33.661Z,14.00
2022-10-02T08:25:04.492Z,14.00
2022-10-02T08:27:31.072Z,14.00
2022-10-02T08:30:00.017Z,14.00
2022-10-02T08:32:34.524Z,14.10
2022-10-02T08:35:01.821Z,14.20
2022-10-02T08:37:29.342Z,14.10
2022-10-02T08:40:22.463Z,14.20
2022-10-02T08:43:04.845Z,14.10
2022-10-02T08:45:41.001Z,14.10
2022-10-02T08:48:10.739Z,14.30
2022-10-02T08:50:53.565Z,14.40
2022-10-02T08:53:39.074Z,14.40
2022-10-02T08:56:05.773Z,14.50
2022-10-02T08:58:35.168Z,14.50
2022-10-02T09:01:16.341Z,14.50
2022-10-02T09:03:49.182Z,14.60
2022-10-02T09:06:42.105Z,14.80
2022-10-02T09:09:27.636Z,14.90
2022-10-02T09:12:00.514Z,15.00
2022-10-02T09:14:42.457Z,15.10
2022-10-02T09:17:09.025Z,15.30
2022-10-02T09:19:54.379Z,16.10
2022-10-02T09:22:39.780Z,17.20
2022-10-02T09:25:09.282Z,18.50
2022-10-02T09:27:38.697Z,20.80
2022-10-02T09:30:20.632Z,20.80
2022-10-02T09:32:47.193Z,20.70
2022-10-02T09:35:28.959Z,20.20
2022-10-02T09:37:59.447Z,19.70
2022-10-02T09:40:44.607Z,19.50
2022-10-02T09:43:20.366Z,19.00
2022-10-02T09:46:07.412Z,18.80
2022-10-02T09:48:52.872Z,18.70
2022-10-02T09:51:36.861Z,18.90
2022-10-02T09:54:18.691Z,18.80
2022-10-02T09:56:54.638Z,18.70
2022-10-02T09:59:30.507Z,18.90
2022-10-02T10:02:15.836Z,19.30
2022-10-02T10:05:08.255Z,19.40
2022-10-02T10:07:53.459Z,19.50
2022-10-02T10:10:38.706Z,19.20
2022-10-02T10:13:21.461Z,18.90
2022-10-02T10:16:08.112Z,18.80
2022-10-02T10:18:44.052Z,18.30
2022-10-02T10:21:30.302Z,18.20
2022-10-02T10:24:03.135Z,18.00
2022-10-02T10:26:39.561Z,17.80
2022-10-02T10:29:07.657Z,17.70
2022-10-02T10:31:53.179Z,17.80
2022-10-02T10:34:25.660Z,17.90
2022-10-02T10:37:37.281Z,18.20
2022-10-02T10:40:06.990Z,18.40
2022-10-02T10:42:50.200Z,18.30
2022-10-02T10:45:32.496Z,17.80
2022-10-02T10:48:18.641Z,17.20
2022-10-02T10:50:45.947Z,17.00
2022-10-02T10:53:19.869Z,16.90
2022-10-02T10:55:59.016Z,17.10
2022-10-02T10:58:43.736Z,17.00
2022-10-02T11:01:20.655Z,17.00
2022-10-02T11:04:10.370Z,17.20
2022-10-02T11:06:43.995Z,17.30
2022-10-02T11:09:22.680Z,17.20
2022-10-02T11:12:16.680Z,17.30
2022-10-02T11:14:43.890Z,17.50
2022-10-02T11:17:16.302Z,17.80
2022-10-02T11:19:55.273Z,18.00
2022-10-02T11:22:21.845Z,18.10
2022-10-02T11:24:55.485Z,18.00
2022-10-02T11:27:31.127Z,17.90
2022-10-02T11:30:16.997Z,17.80
2022-10-02T11:32:43.668Z,17.00
2022-10-02T11:35:23.428Z,16.70
2022-10-02T11:37:50.137Z,16.60
2022-10-02T11:40:16.715Z,16.40
2022-10-02T11:42:49.238Z,16.50
2022-10-02T11:45:16.402Z,16.60
2022-10-02T11:47:55.343Z,17.00
2022-10-02T11:50:35.870Z,16.90
2022-10-02T11:53:02.516Z,16.70
2022-10-02T11:55:32.140Z,16.20
2022-10-02T11:58:01.764Z,16.10
2022-10-02T12:00:47.454Z,16.30
2022-10-02T12:03:19.715Z,16.10
2022-10-02T12:05:55.248Z,16.00
2022-10-02T12:08:31.337Z,16.00
2022-10-02T12:11:16.459Z,16.10
2022-10-02T12:13:48.988Z,16.10
2022-10-02T12:16:25.981Z,15.80
2022-10-02T12:18:52.599Z,15.80
2022-10-02T12:21:57.153Z,15.90
2022-10-02T12:25:01.320Z,15.90
2022-10-02T12:27:46.513Z,15.70
2022-10-02T12:30:13.352Z,15.90
2022-10-02T12:32:45.723Z,16.10
2022-10-02T12:35:31.501Z,16.20
2022-10-02T12:38:18.973Z,16.20
2022-10-02T12:40:52.716Z,16.10
2022-10-02T12:43:29.743Z,16.00
2022-10-02T12:46:14.943Z,15.90
2022-10-02T12:48:47.775Z,15.70
2022-10-02T12:51:28.893Z,15.60
2022-10-02T12:53:55.507Z,15.60
2022-10-02T12:56:40.651Z,15.50
2022-10-02T12:59:19.251Z,15.50
2022-10-02T13:02:07.102Z,15.40
2022-10-02T13:04:52.428Z,15.30
2022-10-02T13:07:31.086Z,15.30
2022-10-02T13:10:16.275Z,15.20
2022-10-02T13:12:51.415Z,15.10
2022-10-02T13:15:21.502Z,15.00
2022-10-02T13:17:48.234Z,14.90
2022-10-02T13:20:14.943Z,15.00
2022-10-02T13:23:06.974Z,15.00
2022-10-02T13:25:36.328Z,15.00
2022-10-02T13:28:20.808Z,15.00
2022-10-02T13:31:06.074Z,15.00
2022-10-02T13:33:52.827Z,15.00
2022-10-02T13:36:23.315Z,15.00
2022-10-02T13:38:58.971Z,14.90
2022-10-02T13:41:43.978Z,15.00
2022-10-02T13:44:25.756Z,15.00
2022-10-02T13:47:11.283Z,15.00
2022-10-02T13:49:54.120Z,15.00
2022-10-02T13:52:29.258Z,14.90
2022-10-02T13:55:15.171Z,14.70
2022-10-02T13:57:55.054Z,14.90
2022-10-02T14:00:37.260Z,15.00
2022-10-02T14:03:03.815Z,15.10
2022-10-02T14:05:33.631Z,15.20
2022-10-02T14:08:19.072Z,15.20
2022-10-02T14:10:56.155Z,15.30
2022-10-02T14:13:42.192Z,15.40
2022-10-02T14:16:15.165Z,15.60
2022-10-02T14:18:51.489Z,15.80
2022-10-02T14:21:31.051Z,15.90
2022-10-02T14:23:57.638Z,16.00
2022-10-02T14:26:43.218Z,16.10
2022-10-02T14:29:20.126Z,15.90
2022-10-02T14:32:00.644Z,15.80
2022-10-02T14:34:27.350Z,15.50
2022-10-02T14:37:16.419Z,15.30
2022-10-02T14:39:43.205Z,15.20
2022-10-02T14:42:09.770Z,15.20
2022-10-02T14:44:39.644Z,15.20
2022-10-02T14:47:06.415Z,15.20
2022-10-02T14:49:51.762Z,15.10
2022-10-02T14:52:36.960Z,15.20
2022-10-02T14:55:18.857Z,15.30
2022-10-02T14:57:45.415Z,15.40
2022-10-02T15:00:18.309Z,15.40
2022-10-02T15:03:03.228Z,15.50
2022-10-02T15:05:39.136Z,15.50
2022-10-02T15:08:11.917Z,15.70
2022-10-02T15:10:39.463Z,15.80
2022-10-02T15:13:10.335Z,15.90
2022-10-02T15:15:44.406Z,15.80
2022-10-02T15:18:38.466Z,15.70
2022-10-02T15:21:11.397Z,15.50
2022-10-02T15:23:45.390Z,15.40
2022-10-02T15:26:14.834Z,15.30
2022-10-02T15:28:41.493Z,15.20
2022-10-02T15:31:17.932Z,15.20
2022-10-02T15:33:57.152Z,15.10
2022-10-02T15:36:56.010Z,15.00
2022-10-02T15:39:31.948Z,14.90
2022-10-02T15:42:06.014Z,14.80
2022-10-02T15:44:51.092Z,14.80
2022-10-02T15:47:25.581Z,14.70
2022-10-02T15:50:10.947Z,14.50
2022-10-02T15:52:49.608Z,14.50
2022-10-02T15:55:19.536Z,14.40
2022-10-02T15:58:02.078Z,14.40
2022-10-02T16:00:31.107Z,14.30
2022-10-02T16:02:57.731Z,14.20
2022-10-02T16:05:30.384Z,14.20
2022-10-02T16:08:15.397Z,14.10
2022-10-02T16:11:02.264Z,14.20
2022-10-02T16:13:37.953Z,14.10
2022-10-02T16:16:14.113Z,14.10
2022-10-02T16:18:59.506Z,14.10
2022-10-02T16:21:29.132Z,14.10
2022-10-02T16:24:11.136Z,14.10
2022-10-02T16:26:37.985Z,14.00
2022-10-02T16:29:04.778Z,14.00
2022-10-02T16:31:50.141Z,14.00
2022-10-02T16:34:22.649Z,14.00
2022-10-02T16:37:09.529Z,13.90
2022-10-02T16:39:46.827Z,13.90
2022-10-02T16:42:25.885Z,13.90
2022-10-02T16:44:55.270Z,13.80
2022-10-02T16:47:32.838Z,13.80
2022-10-02T16:50:14.360Z,13.80
2022-10-02T16:53:10.385Z,13.70
2022-10-02T16:55:39.380Z,13.70
2022-10-02T16:58:12.272Z,13.70
2022-10-02T17:00:54.016Z,13.70
2022-10-02T17:03:56.595Z,13.70
2022-10-02T17:06:26.807Z,13.70
2022-10-02T17:09:09.681Z,13.60
2022-10-02T17:11:37.999Z,13.60
2022-10-02T17:14:24.350Z,13.60
2022-10-02T17:16:54.121Z,13.60
2022-10-02T17:19:23.251Z,13.60
2022-10-02T17:21:52.989Z,13.50
2022-10-02T17:24:32.274Z,13.50
2022-10-02T17:27:01.983Z,13.40
2022-10-02T17:29:39.095Z,13.40
2022-10-02T17:32:08.414Z,13.40
2022-10-02T17:34:49.217Z,13.50
2022-10-02T17:37:15.861Z,13.40
2022-10-02T17:39:54.147Z,13.30
2022-10-02T17:42:32.605Z,13.30
2022-10-02T17:45:02.488Z,13.30
2022-10-02T17:47:38.330Z,13.20
2022-10-02T17:50:04.917Z,13.30
2022-10-02T17:52:59.408Z,13.30
2022-10-02T17:55:50.691Z,13.30
2022-10-02T17:58:26.987Z,13.30
2022-10-02T18:01:08.054Z,13.20
2022-10-02T18:03:36.720Z,13.20
2022-10-02T18:06:26.711Z,13.20
2022-10-02T18:08:59.483Z,13.20
2022-10-02T18:11:32.199Z,13.20
2022-10-02T18:13:59.825Z,13.20
2022-10-02T18:16:26.636Z,13.20
2022-10-02T18:19:14.370Z,13.20
2022-10-02T18:21:54.636Z,13.20
2022-10-02T18:24:48.739Z,13.20
2022-10-02T18:27:15.403Z,13.20
2022-10-02T18:29:44.995Z,13.20
2022-10-02T18:32:20.997Z,13.20
2022-10-02T18:35:03.800Z,13.20
2022-10-02T18:37:36.331Z,13.20
2022-10-02T18:40:15.964Z,13.20
2022-10-02T18:43:06.201Z,13.20
2022-10-02T18:45:32.893Z,13.10
2022-10-02T18:48:02.755Z,13.10
2022-10-02T18:50:29.322Z,13.00
2022-10-02T18:53:05.108Z,13.00
2022-10-02T18:55:39.828Z,13.00
2022-10-02T18:58:15.697Z,13.10
2022-10-02T19:01:05.109Z,13.10
2022-10-02T19:03:39.345Z,13.10
2022-10-02T19:06:09.585Z,13.10
2022-10-02T19:08:54.994Z,13.00
2022-10-02T19:11:27.203Z,13.10
2022-10-02T19:13:54.263Z,13.10
2022-10-02T19:16:25.806Z,13.10
2022-10-02T19:19:06.104Z,13.00
2022-10-02T19:21:34.155Z,13.00
2022-10-02T19:24:07.026Z,13.00
2022-10-02T19:26:35.437Z,13.10
2022-10-02T19:29:19.362Z,13.00
2022-10-02T19:31:46.468Z,13.00
2022-10-02T19:34:17.409Z,13.10
2022-10-02T19:36:50.382Z,13.10
2022-10-02T19:39:19.134Z,13.00
2022-10-02T19:41:47.963Z,12.90
2022-10-02T19:44:25.178Z,13.00
2022-10-02T19:46:56.475Z,13.00
2022-10-02T19:49:24.694Z,13.00
2022-10-02T19:51:53.032Z,13.10
2022-10-02T19:54:24.551Z,13.10
2022-10-02T19:56:54.323Z,13.10
2022-10-02T19:59:24.120Z,13.10
2022-10-02T20:01:52.206Z,13.10
2022-10-02T20:04:21.194Z,13.10
2022-10-02T20:06:53.088Z,13.10
2022-10-02T20:09:39.274Z,13.10
2022-10-02T20:12:16.925Z,13.10
2022-10-02T20:14:50.674Z,13.00
2022-10-02T20:17:19.083Z,13.10
2022-10-02T20:19:53.491Z,13.10
2022-10-02T20:22:24.145Z,13.10
2022-10-02T20:24:51.337Z,13.10
2022-10-02T20:27:28.395Z,13.10
2022-10-02T20:30:00.481Z,13.10
2022-10-02T20:32:29.939Z,13.10
2022-10-02T20:34:59.575Z,13.10
2022-10-02T20:37:29.461Z,13.00
2022-10-02T20:40:02.701Z,13.00
2022-10-02T20:42:37.037Z,13.00
2022-10-02T20:45:03.887Z,13.00
2022-10-02T20:47:57.007Z,13.00
2022-10-02T20:50:43.997Z,13.00
2022-10-02T20:53:34.994Z,13.00
2022-10-02T20:56:09.077Z,12.90
2022-10-02T20:58:47.657Z,12.90
2022-10-02T21:01:14.548Z,13.00
2022-10-02T21:04:00.216Z,12.90
2022-10-02T21:06:46.322Z,13.00
2022-10-02T21:09:36.167Z,13.00
2022-10-02T21:12:14.578Z,13.00
2022-10-02T21:14:44.730Z,13.00
2022-10-02T21:17:13.213Z,13.00
2022-10-02T21:19:52.092Z,12.90
2022-10-02T21:22:33.892Z,12.90
2022-10-02T21:25:07.239Z,12.90
2022-10-02T21:27:36.587Z,12.80
2022-10-02T21:30:14.064Z,12.90
2022-10-02T21:33:00.949Z,12.80
2022-10-02T21:35:34.595Z,12.80
2022-10-02T21:38:04.117Z,12.80
2022-10-02T21:40:36.722Z,12.80
2022-10-02T21:43:03.316Z,12.80
2022-10-02T21:45:38.839Z,12.70
2022-10-02T21:48:24.335Z,12.70
2022-10-02T21:50:53.983Z,12.70
2022-10-02T21:53:39.152Z,12.70
2022-10-02T21:56:18.930Z,12.70
2022-10-02T21:59:04.396Z,12.70
2022-10-02T22:01:36.263Z,12.70
2022-10-02T22:04:19.909Z,12.70
2022-10-02T22:07:09.879Z,12.70
2022-10-02T22:09:45.500Z,12.70
2022-10-02T22:12:20.479Z,12.70
2022-10-02T22:14:53.780Z,12.60
2022-10-02T22:17:34.584Z,12.50
2022-10-02T22:20:20.163Z,12.50
2022-10-02T22:23:04.906Z,12.40
2022-10-02T22:25:40.464Z,12.30
2022-10-02T22:28:12.944Z,12.20
2022-10-02T22:31:05.834Z,12.10
2022-10-02T22:33:32.499Z,12.10
2022-10-02T22:36:11.109Z,11.90
2022-10-02T22:38:40.309Z,11.90
2022-10-02T22:41:16.223Z,11.90
2022-10-02T22:43:51.209Z,11.90
2022-10-02T22:46:22.173Z,11.80
2022-10-02T22:48:54.665Z,11.80
2022-10-02T22:51:30.270Z,11.80
2022-10-02T22:53:59.700Z,11.80
2022-10-02T22:56:47.682Z,11.70
2022-10-02T22:59:18.282Z,11.70
2022-10-02T23:01:48.214Z,11.60
2022-10-02T23:04:28.854Z,11.50
2022-10-02T23:07:10.151Z,11.40
2022-10-02T23:09:36.772Z,11.40
2022-10-02T23:12:18.311Z,11.30
2022-10-02T23:14:45.102Z,11.20
2022-10-02T23:17:11.706Z,11.20
2022-10-02T23:19:38.749Z,11.10
2022-10-02T23:22:13.924Z,11.10
2022-10-02T23:25:00.333Z,11.00
2022-10-02T23:27:33.330Z,11.00
2022-10-02T23:30:05.591Z,10.90
2022-10-02T23:32:48.743Z,10.90
2022-10-02T23:35:36.121Z,10.90
2022-10-02T23:38:02.743Z,10.90
2022-10-02T23:41:10.251Z,10.90
2022-10-02T23:43:39.695Z,10.90
2022-10-02T23:46:09.582Z,11.00
2022-10-02T23:48:37.015Z,11.10
2022-10-02T23:51:09.485Z,11.10
2022-10-02T23:53:51.300Z,11.10
2022-10-02T23:56:36.872Z,11.10
2022-10-02T23:59:18.899Z,11.10
